sensor_id;sensor_type;location;lat;lon;timestamp;P1;durP1;ratioP1;P2;durP2;ratioP2
6987;SDS011;3534;49.960;8.018;2022-09-09T00:01:11;0.70;;;0.60;;
6987;SDS011;3534;49.960;8.018;2022-09-09T00:03:50;1.67;;;0.90;;
6987;SDS011;3534;49.960;8.018;2022-09-09T00:06:21;1.90;;;0.80;;
6987;SDS011;3534;49.960;8.018;2022-09-09T00:09:00;1.60;;;0.90;;
6987;SDS011;3534;49.960;8.018;2022-09-09T00:11:35;2.37;;;1.10;;
6987;SDS011;3534;49.960;8.018;2022-09-09T00:14:08;1.50;;;0.73;;
6987;SDS011;3534;49.960;8.018;2022-09-09T00:16:44;2.13;;;0.87;;
6987;SDS011;3534;49.960;8.018;2022-09-09T00:19:17;3.70;;;0.97;;
6987;SDS011;3534;49.960;8.018;2022-09-09T00:21:50;2.17;;;0.80;;
6987;SDS011;3534;49.960;8.018;2022-09-09T00:24:26;4.07;;;0.97;;
6987;SDS011;3534;49.960;8.018;2022-09-09T00:27:00;3.70;;;1.00;;
6987;SDS011;3534;49.960;8.018;2022-09-09T00:29:33;3.70;;;1.23;;
6987;SDS011;3534;49.960;8.018;2022-09-09T00:32:11;6.47;;;1.30;;
6987;SDS011;3534;49.960;8.018;2022-09-09T00:34:39;1.57;;;0.90;;
6987;SDS011;3534;49.960;8.018;2022-09-09T00:37:14;1.60;;;0.73;;
6987;SDS011;3534;49.960;8.018;2022-09-09T00:39:42;4.27;;;1.30;;
6987;SDS011;3534;49.960;8.018;2022-09-09T00:42:13;4.60;;;0.83;;
6987;SDS011;3534;49.960;8.018;2022-09-09T00:44:46;1.43;;;0.70;;
6987;SDS011;3534;49.960;8.018;2022-09-09T00:47:24;4.63;;;0.80;;
6987;SDS011;3534;49.960;8.018;2022-09-09T00:50:20;1.43;;;1.00;;
6987;SDS011;3534;49.960;8.018;2022-09-09T00:53:02;3.10;;;1.10;;
6987;SDS011;3534;49.960;8.018;2022-09-09T00:55:39;0.97;;;0.70;;
6987;SDS011;3534;49.960;8.018;2022-09-09T00:58:10;3.63;;;0.83;;
6987;SDS011;3534;49.960;8.018;2022-09-09T01:00:39;11.43;;;1.03;;
6987;SDS011;3534;49.960;8.018;2022-09-09T01:03:20;1.23;;;0.90;;
6987;SDS011;3534;49.960;8.018;2022-09-09T01:06:00;3.07;;;1.07;;
6987;SDS011;3534;49.960;8.018;2022-09-09T01:08:36;2.50;;;0.80;;
6987;SDS011;3534;49.960;8.018;2022-09-09T01:11:36;4.23;;;0.83;;
6987;SDS011;3534;49.960;8.018;2022-09-09T01:14:13;1.37;;;0.73;;
6987;SDS011;3534;49.960;8.018;2022-09-09T01:16:46;2.13;;;0.80;;
6987;SDS011;3534;49.960;8.018;2022-09-09T01:19:18;3.27;;;1.00;;
6987;SDS011;3534;49.960;8.018;2022-09-09T01:21:55;2.77;;;1.10;;
6987;SDS011;3534;49.960;8.018;2022-09-09T01:24:27;2.17;;;1.10;;
6987;SDS011;3534;49.960;8.018;2022-09-09T01:27:02;1.60;;;0.93;;
6987;SDS011;3534;49.960;8.018;2022-09-09T01:29:32;2.00;;;1.10;;
6987;SDS011;3534;49.960;8.018;2022-09-09T01:31:59;2.03;;;0.90;;
6987;SDS011;3534;49.960;8.018;2022-09-09T01:34:29;1.20;;;1.07;;
6987;SDS011;3534;49.960;8.018;2022-09-09T01:37:01;3.20;;;1.30;;
6987;SDS011;3534;49.960;8.018;2022-09-09T01:39:30;5.97;;;1.03;;
6987;SDS011;3534;49.960;8.018;2022-09-09T01:41:58;2.67;;;1.17;;
6987;SDS011;3534;49.960;8.018;2022-09-09T01:44:27;1.40;;;0.77;;
6987;SDS011;3534;49.960;8.018;2022-09-09T01:46:55;2.23;;;1.20;;
6987;SDS011;3534;49.960;8.018;2022-09-09T01:49:21;1.03;;;0.90;;
6987;SDS011;3534;49.960;8.018;2022-09-09T01:51:49;3.33;;;0.97;;
6987;SDS011;3534;49.960;8.018;2022-09-09T01:54:18;9.77;;;0.90;;
6987;SDS011;3534;49.960;8.018;2022-09-09T01:56:47;1.87;;;0.70;;
6987;SDS011;3534;49.960;8.018;2022-09-09T01:59:24;2.70;;;0.70;;
6987;SDS011;3534;49.960;8.018;2022-09-09T02:02:08;2.50;;;0.70;;
6987;SDS011;3534;49.960;8.018;2022-09-09T02:04:38;1.43;;;1.10;;
6987;SDS011;3534;49.960;8.018;2022-09-09T02:07:09;2.93;;;1.07;;
6987;SDS011;3534;49.960;8.018;2022-09-09T02:09:47;2.40;;;0.80;;
6987;SDS011;3534;49.960;8.018;2022-09-09T02:12:23;1.17;;;0.60;;
6987;SDS011;3534;49.960;8.018;2022-09-09T02:14:55;3.33;;;1.13;;
6987;SDS011;3534;49.960;8.018;2022-09-09T02:17:28;2.50;;;0.90;;
6987;SDS011;3534;49.960;8.018;2022-09-09T02:19:58;5.67;;;1.10;;
6987;SDS011;3534;49.960;8.018;2022-09-09T02:22:30;3.60;;;1.20;;
6987;SDS011;3534;49.960;8.018;2022-09-09T02:25:00;2.00;;;1.07;;
6987;SDS011;3534;49.960;8.018;2022-09-09T02:27:27;1.70;;;1.37;;
6987;SDS011;3534;49.960;8.018;2022-09-09T02:29:56;1.47;;;0.97;;
6987;SDS011;3534;49.960;8.018;2022-09-09T02:32:27;3.80;;;1.80;;
6987;SDS011;3534;49.960;8.018;2022-09-09T02:34:57;5.57;;;1.30;;
6987;SDS011;3534;49.960;8.018;2022-09-09T02:37:27;1.50;;;0.87;;
6987;SDS011;3534;49.960;8.018;2022-09-09T02:39:58;5.07;;;0.83;;
6987;SDS011;3534;49.960;8.018;2022-09-09T02:42:25;2.27;;;1.00;;
6987;SDS011;3534;49.960;8.018;2022-09-09T02:44:51;2.70;;;0.93;;
6987;SDS011;3534;49.960;8.018;2022-09-09T02:47:26;1.60;;;1.00;;
6987;SDS011;3534;49.960;8.018;2022-09-09T02:50:07;1.93;;;0.80;;
6987;SDS011;3534;49.960;8.018;2022-09-09T02:52:42;5.53;;;1.27;;
6987;SDS011;3534;49.960;8.018;2022-09-09T02:55:16;2.60;;;1.03;;
6987;SDS011;3534;49.960;8.018;2022-09-09T02:57:47;3.53;;;1.20;;
6987;SDS011;3534;49.960;8.018;2022-09-09T03:00:15;2.70;;;0.97;;
6987;SDS011;3534;49.960;8.018;2022-09-09T03:02:43;1.37;;;0.90;;
6987;SDS011;3534;49.960;8.018;2022-09-09T03:05:10;1.83;;;0.80;;
6987;SDS011;3534;49.960;8.018;2022-09-09T03:07:38;1.70;;;1.20;;
6987;SDS011;3534;49.960;8.018;2022-09-09T03:10:05;3.63;;;1.33;;
6987;SDS011;3534;49.960;8.018;2022-09-09T03:12:33;1.90;;;1.10;;
6987;SDS011;3534;49.960;8.018;2022-09-09T03:14:59;3.63;;;1.00;;
6987;SDS011;3534;49.960;8.018;2022-09-09T03:17:26;3.57;;;1.60;;
6987;SDS011;3534;49.960;8.018;2022-09-09T03:19:54;3.97;;;1.40;;
6987;SDS011;3534;49.960;8.018;2022-09-09T03:22:23;3.30;;;1.27;;
6987;SDS011;3534;49.960;8.018;2022-09-09T03:24:50;8.50;;;1.43;;
6987;SDS011;3534;49.960;8.018;2022-09-09T03:27:17;8.50;;;1.33;;
6987;SDS011;3534;49.960;8.018;2022-09-09T03:29:45;1.50;;;0.90;;
6987;SDS011;3534;49.960;8.018;2022-09-09T03:32:15;2.80;;;0.93;;
6987;SDS011;3534;49.960;8.018;2022-09-09T03:34:42;1.97;;;1.20;;
6987;SDS011;3534;49.960;8.018;2022-09-09T03:37:10;3.17;;;1.30;;
6987;SDS011;3534;49.960;8.018;2022-09-09T03:39:37;2.73;;;1.03;;
6987;SDS011;3534;49.960;8.018;2022-09-09T03:42:03;2.77;;;0.93;;
6987;SDS011;3534;49.960;8.018;2022-09-09T03:44:30;1.30;;;1.07;;
6987;SDS011;3534;49.960;8.018;2022-09-09T03:46:57;7.53;;;1.13;;
6987;SDS011;3534;49.960;8.018;2022-09-09T03:49:25;4.70;;;1.20;;
6987;SDS011;3534;49.960;8.018;2022-09-09T03:51:53;2.53;;;1.20;;
6987;SDS011;3534;49.960;8.018;2022-09-09T03:54:22;1.83;;;0.90;;
6987;SDS011;3534;49.960;8.018;2022-09-09T03:56:49;1.63;;;1.00;;
6987;SDS011;3534;49.960;8.018;2022-09-09T03:59:16;4.80;;;1.30;;
6987;SDS011;3534;49.960;8.018;2022-09-09T04:01:43;1.37;;;0.87;;
6987;SDS011;3534;49.960;8.018;2022-09-09T04:04:10;3.17;;;1.40;;
6987;SDS011;3534;49.960;8.018;2022-09-09T04:06:37;2.17;;;0.90;;
6987;SDS011;3534;49.960;8.018;2022-09-09T04:09:03;4.77;;;1.57;;
6987;SDS011;3534;49.960;8.018;2022-09-09T04:11:31;1.50;;;0.90;;
6987;SDS011;3534;49.960;8.018;2022-09-09T04:13:59;2.23;;;0.90;;
6987;SDS011;3534;49.960;8.018;2022-09-09T04:16:25;9.93;;;1.23;;
6987;SDS011;3534;49.960;8.018;2022-09-09T04:18:52;2.07;;;1.03;;
6987;SDS011;3534;49.960;8.018;2022-09-09T04:21:19;4.07;;;1.20;;
6987;SDS011;3534;49.960;8.018;2022-09-09T04:23:46;1.83;;;1.10;;
6987;SDS011;3534;49.960;8.018;2022-09-09T04:26:13;1.73;;;1.10;;
6987;SDS011;3534;49.960;8.018;2022-09-09T04:28:41;2.33;;;0.90;;
6987;SDS011;3534;49.960;8.018;2022-09-09T04:31:09;11.50;;;1.40;;
6987;SDS011;3534;49.960;8.018;2022-09-09T04:33:36;7.60;;;1.10;;
6987;SDS011;3534;49.960;8.018;2022-09-09T04:36:04;7.70;;;1.30;;
6987;SDS011;3534;49.960;8.018;2022-09-09T04:38:31;1.60;;;0.93;;
6987;SDS011;3534;49.960;8.018;2022-09-09T04:40:58;2.90;;;1.30;;
6987;SDS011;3534;49.960;8.018;2022-09-09T04:43:24;5.70;;;1.13;;
6987;SDS011;3534;49.960;8.018;2022-09-09T04:45:54;2.37;;;1.37;;
6987;SDS011;3534;49.960;8.018;2022-09-09T04:48:20;1.53;;;1.30;;
6987;SDS011;3534;49.960;8.018;2022-09-09T04:50:54;2.80;;;1.23;;
6987;SDS011;3534;49.960;8.018;2022-09-09T04:53:22;5.80;;;1.10;;
6987;SDS011;3534;49.960;8.018;2022-09-09T04:55:50;2.20;;;1.10;;
6987;SDS011;3534;49.960;8.018;2022-09-09T04:58:17;4.70;;;1.43;;
6987;SDS011;3534;49.960;8.018;2022-09-09T05:00:43;1.73;;;1.30;;
6987;SDS011;3534;49.960;8.018;2022-09-09T05:03:11;6.53;;;2.00;;
6987;SDS011;3534;49.960;8.018;2022-09-09T05:05:38;3.90;;;1.13;;
6987;SDS011;3534;49.960;8.018;2022-09-09T05:08:05;3.63;;;1.50;;
6987;SDS011;3534;49.960;8.018;2022-09-09T05:10:33;3.73;;;1.30;;
6987;SDS011;3534;49.960;8.018;2022-09-09T05:13:02;3.10;;;1.60;;
6987;SDS011;3534;49.960;8.018;2022-09-09T05:15:30;6.10;;;1.50;;
6987;SDS011;3534;49.960;8.018;2022-09-09T05:17:57;1.67;;;1.57;;
6987;SDS011;3534;49.960;8.018;2022-09-09T05:20:26;1.90;;;1.27;;
6987;SDS011;3534;49.960;8.018;2022-09-09T05:22:53;3.70;;;1.20;;
6987;SDS011;3534;49.960;8.018;2022-09-09T05:25:20;3.20;;;1.40;;
6987;SDS011;3534;49.960;8.018;2022-09-09T05:27:47;3.23;;;1.20;;
6987;SDS011;3534;49.960;8.018;2022-09-09T05:30:14;3.10;;;1.17;;
6987;SDS011;3534;49.960;8.018;2022-09-09T05:32:41;2.63;;;0.97;;
6987;SDS011;3534;49.960;8.018;2022-09-09T05:35:08;1.00;;;0.90;;
6987;SDS011;3534;49.960;8.018;2022-09-09T05:37:36;5.90;;;1.03;;
6987;SDS011;3534;49.960;8.018;2022-09-09T05:40:03;4.40;;;1.10;;
6987;SDS011;3534;49.960;8.018;2022-09-09T05:42:30;3.70;;;2.00;;
6987;SDS011;3534;49.960;8.018;2022-09-09T05:44:57;1.43;;;1.03;;
6987;SDS011;3534;49.960;8.018;2022-09-09T05:47:24;2.00;;;1.00;;
6987;SDS011;3534;49.960;8.018;2022-09-09T05:49:52;5.50;;;1.30;;
6987;SDS011;3534;49.960;8.018;2022-09-09T05:52:19;1.77;;;1.00;;
6987;SDS011;3534;49.960;8.018;2022-09-09T05:54:47;4.63;;;1.20;;
6987;SDS011;3534;49.960;8.018;2022-09-09T05:57:14;2.60;;;1.10;;
6987;SDS011;3534;49.960;8.018;2022-09-09T05:59:41;3.27;;;1.20;;
6987;SDS011;3534;49.960;8.018;2022-09-09T06:02:07;4.37;;;1.40;;
6987;SDS011;3534;49.960;8.018;2022-09-09T06:04:34;4.13;;;1.43;;
6987;SDS011;3534;49.960;8.018;2022-09-09T06:07:01;3.17;;;1.30;;
6987;SDS011;3534;49.960;8.018;2022-09-09T06:09:28;5.43;;;1.50;;
6987;SDS011;3534;49.960;8.018;2022-09-09T06:11:56;2.10;;;1.17;;
6987;SDS011;3534;49.960;8.018;2022-09-09T06:14:23;5.03;;;1.47;;
6987;SDS011;3534;49.960;8.018;2022-09-09T06:16:52;2.17;;;1.07;;
6987;SDS011;3534;49.960;8.018;2022-09-09T06:19:18;3.67;;;1.20;;
6987;SDS011;3534;49.960;8.018;2022-09-09T06:21:45;1.70;;;1.20;;
6987;SDS011;3534;49.960;8.018;2022-09-09T06:24:13;4.83;;;1.40;;
6987;SDS011;3534;49.960;8.018;2022-09-09T06:26:42;4.30;;;1.60;;
6987;SDS011;3534;49.960;8.018;2022-09-09T06:29:10;4.03;;;1.30;;
6987;SDS011;3534;49.960;8.018;2022-09-09T06:31:37;3.20;;;1.43;;
6987;SDS011;3534;49.960;8.018;2022-09-09T06:34:05;3.83;;;1.10;;
6987;SDS011;3534;49.960;8.018;2022-09-09T06:36:33;4.80;;;1.20;;
6987;SDS011;3534;49.960;8.018;2022-09-09T06:39:01;2.37;;;0.97;;
6987;SDS011;3534;49.960;8.018;2022-09-09T06:41:29;2.30;;;1.23;;
6987;SDS011;3534;49.960;8.018;2022-09-09T06:43:58;4.47;;;1.10;;
6987;SDS011;3534;49.960;8.018;2022-09-09T06:46:27;2.03;;;1.03;;
6987;SDS011;3534;49.960;8.018;2022-09-09T06:48:56;1.60;;;0.80;;
6987;SDS011;3534;49.960;8.018;2022-09-09T06:51:25;4.40;;;1.00;;
6987;SDS011;3534;49.960;8.018;2022-09-09T06:53:53;3.47;;;0.90;;
6987;SDS011;3534;49.960;8.018;2022-09-09T06:56:22;2.57;;;0.93;;
6987;SDS011;3534;49.960;8.018;2022-09-09T06:58:50;4.30;;;1.10;;
6987;SDS011;3534;49.960;8.018;2022-09-09T07:01:18;3.40;;;1.20;;
6987;SDS011;3534;49.960;8.018;2022-09-09T07:03:47;2.77;;;1.40;;
6987;SDS011;3534;49.960;8.018;2022-09-09T07:06:16;3.43;;;1.40;;
6987;SDS011;3534;49.960;8.018;2022-09-09T07:08:49;3.20;;;1.33;;
6987;SDS011;3534;49.960;8.018;2022-09-09T07:11:17;8.33;;;1.27;;
6987;SDS011;3534;49.960;8.018;2022-09-09T07:13:45;11.10;;;1.50;;
6987;SDS011;3534;49.960;8.018;2022-09-09T07:16:13;5.00;;;1.30;;
6987;SDS011;3534;49.960;8.018;2022-09-09T07:18:41;4.10;;;1.50;;
6987;SDS011;3534;49.960;8.018;2022-09-09T07:21:09;5.90;;;1.70;;
6987;SDS011;3534;49.960;8.018;2022-09-09T07:23:38;4.60;;;1.80;;
6987;SDS011;3534;49.960;8.018;2022-09-09T07:26:07;3.63;;;1.90;;
6987;SDS011;3534;49.960;8.018;2022-09-09T07:28:35;3.80;;;1.87;;
6987;SDS011;3534;49.960;8.018;2022-09-09T07:31:02;4.57;;;2.00;;
6987;SDS011;3534;49.960;8.018;2022-09-09T07:33:30;5.70;;;1.80;;
6987;SDS011;3534;49.960;8.018;2022-09-09T07:36:02;4.40;;;1.60;;
6987;SDS011;3534;49.960;8.018;2022-09-09T07:38:36;5.23;;;1.27;;
6987;SDS011;3534;49.960;8.018;2022-09-09T07:41:05;2.57;;;1.60;;
6987;SDS011;3534;49.960;8.018;2022-09-09T07:43:33;5.33;;;2.10;;
6987;SDS011;3534;49.960;8.018;2022-09-09T07:46:00;4.90;;;1.70;;
6987;SDS011;3534;49.960;8.018;2022-09-09T07:48:27;6.80;;;2.00;;
6987;SDS011;3534;49.960;8.018;2022-09-09T07:51:02;6.50;;;2.03;;
6987;SDS011;3534;49.960;8.018;2022-09-09T07:53:35;9.00;;;2.27;;
6987;SDS011;3534;49.960;8.018;2022-09-09T07:56:03;5.53;;;1.93;;
6987;SDS011;3534;49.960;8.018;2022-09-09T07:58:31;8.73;;;2.60;;
6987;SDS011;3534;49.960;8.018;2022-09-09T08:00:58;7.70;;;2.60;;
6987;SDS011;3534;49.960;8.018;2022-09-09T08:03:25;5.47;;;2.40;;
6987;SDS011;3534;49.960;8.018;2022-09-09T08:05:52;5.63;;;2.60;;
6987;SDS011;3534;49.960;8.018;2022-09-09T08:08:18;12.50;;;3.20;;
6987;SDS011;3534;49.960;8.018;2022-09-09T08:10:47;5.80;;;2.50;;
6987;SDS011;3534;49.960;8.018;2022-09-09T08:13:13;7.13;;;2.90;;
6987;SDS011;3534;49.960;8.018;2022-09-09T08:15:40;4.03;;;2.30;;
6987;SDS011;3534;49.960;8.018;2022-09-09T08:18:08;3.57;;;2.10;;
6987;SDS011;3534;49.960;8.018;2022-09-09T08:20:35;4.60;;;1.67;;
6987;SDS011;3534;49.960;8.018;2022-09-09T08:23:02;8.10;;;1.97;;
6987;SDS011;3534;49.960;8.018;2022-09-09T08:25:29;7.67;;;2.27;;
6987;SDS011;3534;49.960;8.018;2022-09-09T08:27:58;4.63;;;2.07;;
6987;SDS011;3534;49.960;8.018;2022-09-09T08:30:24;5.47;;;1.67;;
6987;SDS011;3534;49.960;8.018;2022-09-09T08:32:51;4.23;;;1.70;;
6987;SDS011;3534;49.960;8.018;2022-09-09T08:35:18;6.00;;;2.00;;
6987;SDS011;3534;49.960;8.018;2022-09-09T08:37:45;7.03;;;2.17;;
6987;SDS011;3534;49.960;8.018;2022-09-09T08:40:12;7.67;;;2.33;;
6987;SDS011;3534;49.960;8.018;2022-09-09T08:42:47;5.80;;;1.73;;
6987;SDS011;3534;49.960;8.018;2022-09-09T08:45:25;4.80;;;1.80;;
6987;SDS011;3534;49.960;8.018;2022-09-09T08:48:03;3.47;;;1.40;;
6987;SDS011;3534;49.960;8.018;2022-09-09T08:50:40;6.90;;;1.60;;
6987;SDS011;3534;49.960;8.018;2022-09-09T08:53:09;7.10;;;1.60;;
6987;SDS011;3534;49.960;8.018;2022-09-09T08:55:41;4.97;;;1.50;;
6987;SDS011;3534;49.960;8.018;2022-09-09T08:58:13;4.50;;;1.37;;
6987;SDS011;3534;49.960;8.018;2022-09-09T09:00:46;6.07;;;1.50;;
6987;SDS011;3534;49.960;8.018;2022-09-09T09:03:35;4.70;;;1.70;;
6987;SDS011;3534;49.960;8.018;2022-09-09T09:06:14;4.63;;;1.53;;
6987;SDS011;3534;49.960;8.018;2022-09-09T09:08:57;6.60;;;2.07;;
6987;SDS011;3534;49.960;8.018;2022-09-09T09:11:33;6.57;;;2.03;;
6987;SDS011;3534;49.960;8.018;2022-09-09T09:14:02;6.40;;;1.97;;
6987;SDS011;3534;49.960;8.018;2022-09-09T09:16:38;3.17;;;1.60;;
6987;SDS011;3534;49.960;8.018;2022-09-09T09:19:10;7.57;;;1.83;;
6987;SDS011;3534;49.960;8.018;2022-09-09T09:21:41;3.37;;;1.80;;
6987;SDS011;3534;49.960;8.018;2022-09-09T09:24:13;4.93;;;2.00;;
6987;SDS011;3534;49.960;8.018;2022-09-09T09:26:45;7.17;;;1.60;;
6987;SDS011;3534;49.960;8.018;2022-09-09T09:29:13;5.70;;;1.73;;
6987;SDS011;3534;49.960;8.018;2022-09-09T09:31:43;8.67;;;1.60;;
6987;SDS011;3534;49.960;8.018;2022-09-09T09:34:14;6.90;;;2.67;;
6987;SDS011;3534;49.960;8.018;2022-09-09T09:36:42;3.10;;;1.63;;
6987;SDS011;3534;49.960;8.018;2022-09-09T09:39:22;7.97;;;1.70;;
6987;SDS011;3534;49.960;8.018;2022-09-09T09:41:49;2.13;;;1.20;;
6987;SDS011;3534;49.960;8.018;2022-09-09T09:44:22;2.40;;;1.40;;
6987;SDS011;3534;49.960;8.018;2022-09-09T09:46:52;6.13;;;1.77;;
6987;SDS011;3534;49.960;8.018;2022-09-09T09:49:31;5.73;;;1.63;;
6987;SDS011;3534;49.960;8.018;2022-09-09T09:51:59;5.17;;;1.60;;
6987;SDS011;3534;49.960;8.018;2022-09-09T09:54:27;2.90;;;1.67;;
6987;SDS011;3534;49.960;8.018;2022-09-09T09:56:56;4.73;;;1.97;;
6987;SDS011;3534;49.960;8.018;2022-09-09T09:59:33;11.93;;;4.83;;
6987;SDS011;3534;49.960;8.018;2022-09-09T10:02:19;7.57;;;2.33;;
6987;SDS011;3534;49.960;8.018;2022-09-09T10:04:59;4.17;;;1.20;;
6987;SDS011;3534;49.960;8.018;2022-09-09T10:07:27;4.77;;;1.00;;
6987;SDS011;3534;49.960;8.018;2022-09-09T10:09:55;2.87;;;1.03;;
6987;SDS011;3534;49.960;8.018;2022-09-09T10:12:25;5.90;;;1.73;;
6987;SDS011;3534;49.960;8.018;2022-09-09T10:15:06;5.73;;;2.17;;
6987;SDS011;3534;49.960;8.018;2022-09-09T10:17:43;5.23;;;1.10;;
6987;SDS011;3534;49.960;8.018;2022-09-09T10:20:23;8.17;;;1.10;;
6987;SDS011;3534;49.960;8.018;2022-09-09T10:23:01;7.23;;;1.90;;
6987;SDS011;3534;49.960;8.018;2022-09-09T10:25:38;4.27;;;1.00;;
6987;SDS011;3534;49.960;8.018;2022-09-09T10:28:28;2.20;;;1.07;;
6987;SDS011;3534;49.960;8.018;2022-09-09T10:31:07;4.73;;;1.57;;
6987;SDS011;3534;49.960;8.018;2022-09-09T10:33:46;5.07;;;1.33;;
6987;SDS011;3534;49.960;8.018;2022-09-09T10:36:18;5.90;;;1.30;;
6987;SDS011;3534;49.960;8.018;2022-09-09T10:38:52;3.33;;;0.83;;
6987;SDS011;3534;49.960;8.018;2022-09-09T10:41:31;3.77;;;1.50;;
6987;SDS011;3534;49.960;8.018;2022-09-09T10:44:17;4.00;;;1.17;;
6987;SDS011;3534;49.960;8.018;2022-09-09T10:47:05;5.10;;;1.03;;
6987;SDS011;3534;49.960;8.018;2022-09-09T10:49:56;1.83;;;0.60;;
6987;SDS011;3534;49.960;8.018;2022-09-09T10:52:39;2.13;;;1.47;;
6987;SDS011;3534;49.960;8.018;2022-09-09T10:55:15;3.97;;;0.93;;
6987;SDS011;3534;49.960;8.018;2022-09-09T10:57:46;5.70;;;1.40;;
6987;SDS011;3534;49.960;8.018;2022-09-09T11:00:15;7.50;;;1.60;;
6987;SDS011;3534;49.960;8.018;2022-09-09T11:02:44;4.10;;;1.57;;
6987;SDS011;3534;49.960;8.018;2022-09-09T11:05:16;4.30;;;1.10;;
6987;SDS011;3534;49.960;8.018;2022-09-09T11:07:47;3.20;;;1.17;;
6987;SDS011;3534;49.960;8.018;2022-09-09T11:10:19;2.90;;;1.20;;
6987;SDS011;3534;49.960;8.018;2022-09-09T11:12:51;3.33;;;1.13;;
6987;SDS011;3534;49.960;8.018;2022-09-09T11:15:23;2.90;;;0.93;;
6987;SDS011;3534;49.960;8.018;2022-09-09T11:17:58;3.13;;;1.07;;
6987;SDS011;3534;49.960;8.018;2022-09-09T11:20:29;3.57;;;1.20;;
6987;SDS011;3534;49.960;8.018;2022-09-09T11:22:58;7.40;;;1.10;;
6987;SDS011;3534;49.960;8.018;2022-09-09T11:25:29;2.80;;;1.10;;
6987;SDS011;3534;49.960;8.018;2022-09-09T11:28:04;6.77;;;0.90;;
6987;SDS011;3534;49.960;8.018;2022-09-09T11:30:43;5.23;;;1.00;;
6987;SDS011;3534;49.960;8.018;2022-09-09T11:33:28;3.70;;;0.60;;
6987;SDS011;3534;49.960;8.018;2022-09-09T11:36:26;6.10;;;1.10;;
6987;SDS011;3534;49.960;8.018;2022-09-09T11:39:07;1.93;;;1.13;;
6987;SDS011;3534;49.960;8.018;2022-09-09T11:41:53;5.70;;;1.07;;
6987;SDS011;3534;49.960;8.018;2022-09-09T11:44:23;11.73;;;1.20;;
6987;SDS011;3534;49.960;8.018;2022-09-09T11:46:55;5.63;;;1.10;;
6987;SDS011;3534;49.960;8.018;2022-09-09T11:49:26;5.40;;;1.00;;
6987;SDS011;3534;49.960;8.018;2022-09-09T11:51:55;4.07;;;1.20;;
6987;SDS011;3534;49.960;8.018;2022-09-09T11:54:27;4.97;;;1.23;;
6987;SDS011;3534;49.960;8.018;2022-09-09T11:56:55;6.80;;;1.20;;
6987;SDS011;3534;49.960;8.018;2022-09-09T11:59:23;4.03;;;1.63;;
6987;SDS011;3534;49.960;8.018;2022-09-09T12:01:54;5.00;;;0.90;;
6987;SDS011;3534;49.960;8.018;2022-09-09T12:04:33;3.53;;;1.07;;
6987;SDS011;3534;49.960;8.018;2022-09-09T12:07:20;5.57;;;1.33;;
6987;SDS011;3534;49.960;8.018;2022-09-09T12:09:54;3.70;;;1.00;;
6987;SDS011;3534;49.960;8.018;2022-09-09T12:12:25;5.10;;;1.57;;
6987;SDS011;3534;49.960;8.018;2022-09-09T12:14:55;2.37;;;1.10;;
6987;SDS011;3534;49.960;8.018;2022-09-09T12:17:24;3.47;;;0.90;;
6987;SDS011;3534;49.960;8.018;2022-09-09T12:19:59;10.00;;;1.20;;
6987;SDS011;3534;49.960;8.018;2022-09-09T12:22:34;3.40;;;0.70;;
6987;SDS011;3534;49.960;8.018;2022-09-09T12:25:09;1.73;;;0.67;;
6987;SDS011;3534;49.960;8.018;2022-09-09T12:27:49;3.30;;;0.90;;
6987;SDS011;3534;49.960;8.018;2022-09-09T12:30:28;2.50;;;0.73;;
6987;SDS011;3534;49.960;8.018;2022-09-09T12:33:01;4.13;;;1.20;;
6987;SDS011;3534;49.960;8.018;2022-09-09T12:35:28;1.50;;;0.80;;
6987;SDS011;3534;49.960;8.018;2022-09-09T12:37:59;3.03;;;0.80;;
6987;SDS011;3534;49.960;8.018;2022-09-09T12:40:28;3.20;;;0.87;;
6987;SDS011;3534;49.960;8.018;2022-09-09T12:42:57;6.43;;;1.00;;
6987;SDS011;3534;49.960;8.018;2022-09-09T12:45:26;3.57;;;1.00;;
6987;SDS011;3534;49.960;8.018;2022-09-09T12:47:56;3.33;;;1.20;;
6987;SDS011;3534;49.960;8.018;2022-09-09T12:50:27;2.07;;;0.90;;
6987;SDS011;3534;49.960;8.018;2022-09-09T12:52:56;4.00;;;0.80;;
6987;SDS011;3534;49.960;8.018;2022-09-09T12:55:28;2.60;;;0.70;;
6987;SDS011;3534;49.960;8.018;2022-09-09T12:57:58;4.50;;;1.10;;
6987;SDS011;3534;49.960;8.018;2022-09-09T13:00:29;3.63;;;0.97;;
6987;SDS011;3534;49.960;8.018;2022-09-09T13:02:56;3.43;;;1.03;;
6987;SDS011;3534;49.960;8.018;2022-09-09T13:05:25;2.70;;;0.83;;
6987;SDS011;3534;49.960;8.018;2022-09-09T13:08:01;2.13;;;0.70;;
6987;SDS011;3534;49.960;8.018;2022-09-09T13:10:30;4.20;;;0.93;;
6987;SDS011;3534;49.960;8.018;2022-09-09T13:13:00;2.13;;;0.73;;
6987;SDS011;3534;49.960;8.018;2022-09-09T13:15:28;3.17;;;1.13;;
6987;SDS011;3534;49.960;8.018;2022-09-09T13:17:56;5.80;;;0.90;;
6987;SDS011;3534;49.960;8.018;2022-09-09T13:20:25;1.77;;;0.90;;
6987;SDS011;3534;49.960;8.018;2022-09-09T13:22:53;1.60;;;0.70;;
6987;SDS011;3534;49.960;8.018;2022-09-09T13:25:24;2.93;;;0.80;;
6987;SDS011;3534;49.960;8.018;2022-09-09T13:27:52;2.30;;;0.70;;
6987;SDS011;3534;49.960;8.018;2022-09-09T13:30:25;1.50;;;0.50;;
6987;SDS011;3534;49.960;8.018;2022-09-09T13:33:01;1.57;;;0.60;;
6987;SDS011;3534;49.960;8.018;2022-09-09T13:35:29;2.50;;;0.70;;
6987;SDS011;3534;49.960;8.018;2022-09-09T13:37:56;3.43;;;0.90;;
6987;SDS011;3534;49.960;8.018;2022-09-09T13:40:26;2.50;;;0.73;;
6987;SDS011;3534;49.960;8.018;2022-09-09T13:42:54;3.90;;;0.70;;
6987;SDS011;3534;49.960;8.018;2022-09-09T13:45:31;4.17;;;1.10;;
6987;SDS011;3534;49.960;8.018;2022-09-09T13:47:59;3.63;;;0.80;;
6987;SDS011;3534;49.960;8.018;2022-09-09T13:50:35;1.80;;;0.60;;
6987;SDS011;3534;49.960;8.018;2022-09-09T13:53:02;2.90;;;0.80;;
6987;SDS011;3534;49.960;8.018;2022-09-09T13:55:29;2.47;;;0.60;;
6987;SDS011;3534;49.960;8.018;2022-09-09T13:57:57;5.90;;;1.00;;
6987;SDS011;3534;49.960;8.018;2022-09-09T14:00:25;2.57;;;0.80;;
6987;SDS011;3534;49.960;8.018;2022-09-09T14:02:54;2.20;;;0.70;;
6987;SDS011;3534;49.960;8.018;2022-09-09T14:05:21;3.20;;;1.00;;
6987;SDS011;3534;49.960;8.018;2022-09-09T14:07:48;4.30;;;1.10;;
6987;SDS011;3534;49.960;8.018;2022-09-09T14:10:15;3.37;;;0.70;;
6987;SDS011;3534;49.960;8.018;2022-09-09T14:12:42;3.83;;;1.10;;
6987;SDS011;3534;49.960;8.018;2022-09-09T14:15:09;4.97;;;1.00;;
6987;SDS011;3534;49.960;8.018;2022-09-09T14:17:37;5.00;;;1.10;;
6987;SDS011;3534;49.960;8.018;2022-09-09T14:20:06;2.43;;;1.10;;
6987;SDS011;3534;49.960;8.018;2022-09-09T14:22:35;4.50;;;1.10;;
6987;SDS011;3534;49.960;8.018;2022-09-09T14:25:04;5.80;;;1.20;;
6987;SDS011;3534;49.960;8.018;2022-09-09T14:27:32;1.63;;;0.80;;
6987;SDS011;3534;49.960;8.018;2022-09-09T14:29:58;1.97;;;0.77;;
6987;SDS011;3534;49.960;8.018;2022-09-09T14:32:25;2.97;;;1.00;;
6987;SDS011;3534;49.960;8.018;2022-09-09T14:34:52;3.90;;;0.73;;
6987;SDS011;3534;49.960;8.018;2022-09-09T14:37:20;2.77;;;0.80;;
6987;SDS011;3534;49.960;8.018;2022-09-09T14:39:47;1.70;;;0.67;;
6987;SDS011;3534;49.960;8.018;2022-09-09T14:42:15;2.30;;;0.67;;
6987;SDS011;3534;49.960;8.018;2022-09-09T14:44:42;4.33;;;1.17;;
6987;SDS011;3534;49.960;8.018;2022-09-09T14:47:09;2.43;;;1.07;;
6987;SDS011;3534;49.960;8.018;2022-09-09T14:49:35;5.10;;;0.80;;
6987;SDS011;3534;49.960;8.018;2022-09-09T14:52:03;3.13;;;0.80;;
6987;SDS011;3534;49.960;8.018;2022-09-09T14:54:32;2.03;;;0.90;;
6987;SDS011;3534;49.960;8.018;2022-09-09T14:56:59;2.27;;;0.70;;
6987;SDS011;3534;49.960;8.018;2022-09-09T14:59:26;6.20;;;1.23;;
6987;SDS011;3534;49.960;8.018;2022-09-09T15:01:52;3.90;;;0.90;;
6987;SDS011;3534;49.960;8.018;2022-09-09T15:04:19;3.77;;;0.93;;
6987;SDS011;3534;49.960;8.018;2022-09-09T15:06:46;3.60;;;0.80;;
6987;SDS011;3534;49.960;8.018;2022-09-09T15:09:15;1.93;;;0.67;;
6987;SDS011;3534;49.960;8.018;2022-09-09T15:11:43;3.10;;;0.57;;
6987;SDS011;3534;49.960;8.018;2022-09-09T15:14:10;2.60;;;0.90;;
6987;SDS011;3534;49.960;8.018;2022-09-09T15:16:37;4.80;;;0.70;;
6987;SDS011;3534;49.960;8.018;2022-09-09T15:19:05;7.23;;;2.30;;
6987;SDS011;3534;49.960;8.018;2022-09-09T15:21:32;1.93;;;0.73;;
6987;SDS011;3534;49.960;8.018;2022-09-09T15:24:00;3.03;;;0.70;;
6987;SDS011;3534;49.960;8.018;2022-09-09T15:26:27;1.97;;;0.90;;
6987;SDS011;3534;49.960;8.018;2022-09-09T15:28:55;1.93;;;0.70;;
6987;SDS011;3534;49.960;8.018;2022-09-09T15:31:25;2.50;;;0.63;;
6987;SDS011;3534;49.960;8.018;2022-09-09T15:33:54;3.90;;;0.80;;
6987;SDS011;3534;49.960;8.018;2022-09-09T15:36:26;3.33;;;0.70;;